Time;durP1;ratioP1;P1;durP2;ratioP2;P2;SDS_P1;SDS_P2;PMS_P1;PMS_P2;Temp;Humidity;BMP_temperature;BMP_pressure;BME280_temperature;BME280_humidity;BME280_pressure;Samples;Min_cycle;Max_cycle;Signal;HPM_P1;HPM_P2
2021/04/26 00:01:31;;;;;;;15.13;6.90;;;6.40;68.70;;;;;;5068435;28;20629;-69
2021/04/26 00:03:58;;;;;;;15.93;6.93;;;6.30;69.70;;;;;;5067907;28;20040;-68
2021/04/26 00:06:23;;;;;;;18.38;8.45;;;6.20;70.60;;;;;;5067427;28;20389;-69
2021/04/26 00:08:49;;;;;;;16.35;7.63;;;6.00;71.70;;;;;;5068526;28;20025;-68
2021/04/26 00:11:15;;;;;;;12.68;7.40;;;5.80;72.50;;;;;;5068028;28;20032;-68
2021/04/26 00:13:40;;;;;;;12.20;6.53;;;5.70;72.50;;;;;;5068079;28;20055;-68
2021/04/26 00:16:06;;;;;;;11.57;5.93;;;5.60;72.40;;;;;;5067892;28;20260;-69
2021/04/26 00:18:32;;;;;;;;;;;5.40;72.00;;;;;;5068073;28;20050;-69
2021/04/26 00:20:58;;;;;;;9.32;4.72;;;5.30;72.10;;;;;;5066670;28;19908;-68
2021/04/26 00:23:24;;;;;;;9.05;5.00;;;5.20;71.60;;;;;;5066399;28;20409;-68
2021/04/26 00:25:49;;;;;;;11.32;4.80;;;5.10;71.20;;;;;;5068488;28;20112;-69
2021/04/26 00:28:15;;;;;;;;;;;5.10;70.90;;;;;;5068154;28;20032;-69
2021/04/26 00:30:41;;;;;;;7.40;4.25;;;5.00;69.90;;;;;;5067571;28;19906;-69
2021/04/26 00:33:07;;;;;;;;;;;5.00;69.50;;;;;;5068449;28;20036;-68
2021/04/26 00:35:32;;;;;;;8.25;4.00;;;5.00;67.90;;;;;;5065766;28;19914;-68
2021/04/26 00:37:58;;;;;;;;;;;4.90;67.60;;;;;;5067990;28;20063;-68
2021/04/26 00:40:24;;;;;;;6.60;3.72;;;5.00;66.30;;;;;;5067325;28;19939;-69
2021/04/26 00:42:51;;;;;;;6.07;3.40;;;5.00;64.90;;;;;;5066352;28;20036;-68
2021/04/26 00:45:20;;;;;;;15.15;4.05;;;4.90;64.20;;;;;;5067756;28;20057;-68
2021/04/26 00:47:47;;;;;;;7.60;3.22;;;4.90;64.50;;;;;;5067703;28;20857;-68
2021/04/26 00:50:24;;;;;;;8.45;3.08;;;4.80;64.00;;;;;;5067097;28;20524;-67
2021/04/26 00:52:51;;;;;;;11.27;3.65;;;4.70;64.40;;;;;;5067634;28;20028;-69
2021/04/26 00:55:19;;;;;;;8.45;3.67;;;4.60;64.00;;;;;;5065748;28;20298;-69
2021/04/26 00:57:45;;;;;;;10.40;4.10;;;4.40;64.90;;;;;;5067396;28;20074;-67
2021/04/26 01:00:11;;;;;;;;;;;4.30;65.00;;;;;;5067694;28;20501;-68
2021/04/26 01:02:38;;;;;;;6.65;3.30;;;4.20;65.40;;;;;;5066967;28;20435;-68
2021/04/26 01:05:06;;;;;;;6.70;3.03;;;4.20;65.90;;;;;;5066733;28;20017;-68
2021/04/26 01:07:34;;;;;;;11.02;4.05;;;4.10;66.20;;;;;;5066845;28;20032;-69
2021/04/26 01:10:03;;;;;;;5.72;2.80;;;4.00;65.00;;;;;;5067091;28;20012;-66
2021/04/26 01:12:28;;;;;;;6.35;2.55;;;4.00;64.90;;;;;;5066285;28;20512;-66
2021/04/26 01:15:00;;;;;;;;;;;3.90;65.00;;;;;;5066575;28;20050;-67
2021/04/26 01:17:30;;;;;;;8.85;3.20;;;3.90;66.00;;;;;;5064543;28;19916;-67
2021/04/26 01:20:20;;;;;;;5.97;2.35;;;3.80;65.50;;;;;;5066510;28;20025;-67
2021/04/26 01:23:17;;;;;;;9.68;2.40;;;3.70;65.50;;;;;;5065439;28;20032;-67
2021/04/26 01:25:45;;;;;;;6.45;1.83;;;3.60;64.60;;;;;;5066849;28;20151;-66
2021/04/26 01:28:46;;;;;;;5.78;1.77;;;3.60;62.40;;;;;;5066782;28;20024;-67
2021/04/26 01:31:47;;;;;;;5.65;1.92;;;3.70;61.20;;;;;;5066847;28;20029;-66
2021/04/26 01:34:13;;;;;;;5.00;1.83;;;3.70;59.40;;;;;;5065772;28;20111;-66
2021/04/26 01:36:39;;;;;;;4.78;2.08;;;3.80;59.40;;;;;;5066352;28;20039;-67
2021/04/26 01:39:06;;;;;;;4.97;1.77;;;3.80;57.90;;;;;;5066544;28;20058;-67
2021/04/26 01:41:32;;;;;;;6.80;1.75;;;3.90;57.20;;;;;;5066549;28;20123;-67
2021/04/26 01:43:58;;;;;;;5.55;1.45;;;4.00;56.60;;;;;;5064991;28;20036;-67
2021/04/26 01:46:26;;;;;;;5.82;1.83;;;4.00;55.90;;;;;;5066401;28;20054;-67
2021/04/26 01:48:54;;;;;;;4.22;1.60;;;4.00;56.00;;;;;;5066077;28;20500;-67
2021/04/26 01:51:21;;;;;;;5.18;1.77;;;4.00;55.10;;;;;;5066524;28;20031;-67
2021/04/26 01:53:49;;;;;;;8.05;1.98;;;4.10;54.30;;;;;;5066007;28;20447;-66
2021/04/26 01:56:17;;;;;;;7.28;1.00;;;4.10;54.20;;;;;;5065820;28;20032;-65
2021/04/26 01:58:46;;;;;;;6.60;1.45;;;4.00;54.10;;;;;;5066493;28;20464;-68
2021/04/26 02:01:19;;;;;;;5.38;1.67;;;4.00;53.00;;;;;;5065977;28;20505;-67
2021/04/26 02:03:53;;;;;;;5.43;1.20;;;4.10;51.20;;;;;;5066141;28;20455;-67
2021/04/26 02:06:21;;;;;;;5.20;1.42;;;4.10;50.70;;;;;;5065805;28;20519;-67
2021/04/26 02:08:47;;;;;;;5.63;1.70;;;4.20;50.20;;;;;;5066466;28;20016;-67
2021/04/26 02:11:13;;;;;;;;;;;4.20;49.70;;;;;;5066702;28;20098;-66
2021/04/26 02:13:39;;;;;;;6.57;1.35;;;4.30;48.90;;;;;;5065729;28;20277;-67
2021/04/26 02:16:05;;;;;;;4.60;1.08;;;4.40;48.80;;;;;;5066141;28;20036;-68
2021/04/26 02:18:31;;;;;;;;;;;4.40;49.10;;;;;;5065752;28;20037;-67
2021/04/26 02:20:56;;;;;;;8.50;1.42;;;4.40;48.70;;;;;;5064880;28;19917;-66
2021/04/26 02:23:23;;;;;;;;;;;4.40;47.40;;;;;;5066130;28;20131;-67
2021/04/26 02:25:49;;;;;;;8.05;1.35;;;4.50;47.20;;;;;;5066141;28;19915;-67
2021/04/26 02:28:14;;;;;;;6.90;1.80;;;4.60;46.90;;;;;;5065723;28;20058;-67
2021/04/26 02:30:40;;;;;;;6.45;1.83;;;4.70;46.80;;;;;;5070229;28;20036;-66
2021/04/26 02:33:16;;;;;;;;;;;4.70;46.70;;;;;;5069997;28;20103;-66
2021/04/26 02:35:48;;;;;;;4.05;1.08;;;4.70;46.70;;;;;;5070254;28;19915;-66
2021/04/26 02:38:36;;;;;;;4.70;1.38;;;4.60;47.30;;;;;;5069610;28;20441;-67
2021/04/26 02:41:14;;;;;;;2.50;0.88;;;4.50;48.20;;;;;;5070073;28;20040;-67
2021/04/26 02:43:44;;;;;;;7.05;1.40;;;4.40;49.10;;;;;;5068609;28;20044;-67
2021/04/26 02:46:11;;;;;;;6.22;1.60;;;4.30;49.70;;;;;;5070037;28;20028;-66
2021/04/26 02:48:39;;;;;;;5.10;1.40;;;4.10;50.50;;;;;;5069491;28;20036;-67
2021/04/26 02:51:05;;;;;;;4.97;1.83;;;4.00;51.20;;;;;;5069854;28;20029;-67
2021/04/26 02:53:33;;;;;;;5.50;1.50;;;4.00;51.90;;;;;;5069476;28;20029;-66
2021/04/26 02:56:03;;;;;;;7.43;1.33;;;3.90;53.40;;;;;;5069505;28;20043;-66
2021/04/26 02:58:30;;;;;;;6.57;1.90;;;3.80;54.70;;;;;;5069609;28;20024;-67
2021/04/26 03:00:57;;;;;;;6.32;1.55;;;3.70;56.10;;;;;;5069577;28;20051;-67
2021/04/26 03:03:25;;;;;;;7.68;1.50;;;3.60;56.70;;;;;;5069132;28;20467;-67
2021/04/26 03:05:51;;;;;;;5.57;2.00;;;3.50;57.10;;;;;;5067753;28;20032;-67
2021/04/26 03:08:17;;;;;;;;;;;3.40;57.70;;;;;;5069803;28;20037;-66
2021/04/26 03:10:45;;;;;;;8.13;1.90;;;3.40;59.60;;;;;;5069550;28;19946;-68
2021/04/26 03:13:11;;;;;;;7.05;2.00;;;3.30;59.10;;;;;;5069272;28;20654;-66
2021/04/26 03:15:36;;;;;;;;;;;3.20;59.70;;;;;;5068357;28;20029;-65
2021/04/26 03:18:02;;;;;;;6.22;1.65;;;3.10;60.90;;;;;;5068872;28;20469;-66
2021/04/26 03:20:29;;;;;;;;;;;3.00;61.20;;;;;;5069685;28;20051;-67
2021/04/26 03:22:56;;;;;;;4.57;1.83;;;3.00;61.00;;;;;;5068838;28;19923;-67
2021/04/26 03:25:23;;;;;;;8.35;2.40;;;3.10;59.50;;;;;;5069340;28;20025;-67
2021/04/26 03:27:52;;;;;;;7.32;1.67;;;3.10;60.30;;;;;;5069011;28;20028;-67
2021/04/26 03:30:21;;;;;;;6.43;2.45;;;3.20;60.60;;;;;;5067593;28;20027;-67
2021/04/26 03:32:48;;;;;;;9.68;3.00;;;3.20;60.70;;;;;;5068202;28;20036;-67
2021/04/26 03:35:17;;;;;;;5.80;2.35;;;3.20;60.90;;;;;;5068942;28;20032;-67
2021/04/26 03:37:46;;;;;;;10.88;3.25;;;3.20;61.10;;;;;;5068935;28;20033;-66
2021/04/26 03:40:17;;;;;;;8.85;4.13;;;3.10;61.60;;;;;;5067653;28;20020;-67
2021/04/26 03:42:43;;;;;;;11.82;3.58;;;3.10;61.90;;;;;;5068751;28;20037;-67
2021/04/26 03:45:09;;;;;;;;;;;3.10;62.60;;;;;;5073703;28;20038;-67
2021/04/26 03:47:34;;;;;;;7.18;3.30;;;3.00;63.30;;;;;;5088207;28;19912;-67
2021/04/26 03:50:00;;;;;;;;;;;3.00;63.00;;;;;;5089301;28;20078;-67
2021/04/26 03:52:25;;;;;;;9.93;4.03;;;3.00;63.90;;;;;;5087690;28;20020;-66
2021/04/26 03:54:51;;;;;;;;;;;3.00;63.10;;;;;;5089466;28;20074;-67
2021/04/26 03:57:17;;;;;;;11.05;3.75;;;3.00;61.80;;;;;;5088636;28;19915;-67
2021/04/26 03:59:42;;;;;;;;;;;3.10;61.10;;;;;;5089297;28;20031;-67
2021/04/26 04:02:08;;;;;;;19.98;4.03;;;3.20;62.70;;;;;;5088287;28;20006;-68
2021/04/26 04:04:35;;;;;;;14.50;3.28;;;3.20;62.40;;;;;;5088413;28;20043;-66
2021/04/26 04:07:00;;;;;;;13.35;3.78;;;3.20;62.50;;;;;;5088577;28;20024;-67
2021/04/26 04:09:26;;;;;;;;;;;3.30;62.10;;;;;;5089116;28;20096;-67
2021/04/26 04:11:51;;;;;;;6.97;3.13;;;3.40;62.50;;;;;;5088392;28;20416;-69
2021/04/26 04:14:17;;;;;;;;;;;3.40;61.60;;;;;;5088431;28;20047;-67
2021/04/26 04:16:43;;;;;;;8.88;3.00;;;3.50;60.90;;;;;;5087912;28;20006;-67
2021/04/26 04:19:08;;;;;;;;;;;3.60;60.90;;;;;;5088642;28;20111;-67
2021/04/26 04:21:34;;;;;;;18.05;10.50;;;3.80;60.00;;;;;;5088109;28;19927;-67
2021/04/26 04:23:59;;;;;;;;;;;3.90;60.40;;;;;;5088580;28;20040;-67
2021/04/26 04:26:25;;;;;;;20.20;9.43;;;4.10;59.60;;;;;;5087824;28;19908;-67
2021/04/26 04:28:51;;;;;;;17.88;10.07;;;4.30;59.70;;;;;;5088333;28;20040;-67
2021/04/26 04:31:16;;;;;;;;;;;4.60;60.80;;;;;;5088330;28;20024;-67
2021/04/26 04:33:42;;;;;;;19.17;9.85;;;4.80;60.50;;;;;;5087890;28;19912;-67
2021/04/26 04:36:09;;;;;;;25.45;12.60;;;5.20;60.40;;;;;;5087669;28;20024;-67
2021/04/26 04:38:35;;;;;;;22.40;11.32;;;5.50;58.80;;;;;;5087952;28;20055;-67
2021/04/26 04:41:00;;;;;;;22.02;8.27;;;5.90;57.70;;;;;;5086753;28;20059;-68
2021/04/26 04:43:26;;;;;;;20.05;9.18;;;6.20;55.90;;;;;;5087818;28;20044;-67
2021/04/26 04:45:52;;;;;;;;;;;6.70;55.00;;;;;;5087623;28;20032;-68
2021/04/26 04:48:17;;;;;;;13.00;6.30;;;7.10;52.30;;;;;;5086090;28;19908;-67
2021/04/26 04:50:44;;;;;;;;;;;7.50;51.40;;;;;;5088226;28;20032;-67
2021/04/26 04:53:09;;;;;;;12.02;5.75;;;7.80;49.20;;;;;;5086656;28;19962;-68
2021/04/26 04:55:35;;;;;;;;;;;8.30;48.70;;;;;;5087832;28;20027;-67
2021/04/26 04:58:01;;;;;;;10.50;3.72;;;8.70;48.00;;;;;;5087524;28;19908;-67
2021/04/26 05:00:27;;;;;;;13.27;4.72;;;9.20;46.60;;;;;;5087650;28;20028;-67
2021/04/26 05:02:53;;;;;;;14.73;4.35;;;9.50;44.90;;;;;;5086820;28;20424;-68
2021/04/26 05:05:18;;;;;;;;;;;9.80;43.10;;;;;;5088036;28;20090;-68
2021/04/26 05:07:44;;;;;;;11.07;5.05;;;10.20;42.30;;;;;;5087007;28;19965;-68
2021/04/26 05:10:10;;;;;;;;;;;10.70;42.20;;;;;;5086320;28;20020;-68
2021/04/26 05:12:35;;;;;;;13.02;6.95;;;11.30;40.70;;;;;;5087168;28;19946;-67
2021/04/26 05:15:02;;;;;;;;;;;11.80;39.60;;;;;;5087661;28;20036;-68
2021/04/26 05:17:28;;;;;;;10.25;4.13;;;12.10;37.50;;;;;;5086240;28;19990;-68
2021/04/26 05:19:54;;;;;;;;;;;12.50;37.50;;;;;;5086295;28;20239;-67
2021/04/26 05:22:19;;;;;;;10.32;4.95;;;12.80;36.00;;;;;;5086643;28;20404;-67
2021/04/26 05:24:45;;;;;;;;;;;12.70;36.90;;;;;;5087627;28;20043;-67
2021/04/26 05:27:11;;;;;;;9.18;4.40;;;12.90;36.60;;;;;;5086647;28;19904;-68
2021/04/26 05:29:36;;;;;;;;;;;13.00;38.00;;;;;;5087105;28;20027;-68
2021/04/26 05:32:02;;;;;;;8.05;4.13;;;13.30;36.20;;;;;;5086444;28;19914;-68
2021/04/26 05:34:28;;;;;;;7.22;3.53;;;13.50;36.30;;;;;;5086897;28;20046;-68
2021/04/26 05:36:54;;;;;;;8.65;3.67;;;13.90;35.70;;;;;;5085627;28;20024;-69
2021/04/26 05:39:19;;;;;;;;;;;14.20;35.80;;;;;;5086954;28;20459;-68
2021/04/26 05:41:45;;;;;;;6.28;3.88;;;14.40;35.90;;;;;;5086819;28;20447;-68
2021/04/26 05:44:11;;;;;;;10.20;4.97;;;14.90;35.40;;;;;;5086385;28;20036;-67
2021/04/26 05:46:37;;;;;;;17.30;5.13;;;15.30;35.20;;;;;;5085878;28;20058;-69
2021/04/26 05:49:02;;;;;;;8.00;4.30;;;15.90;34.70;;;;;;5086827;28;20084;-69
2021/04/26 05:51:28;;;;;;;15.48;5.10;;;16.30;34.00;;;;;;5086543;28;20024;-68
2021/04/26 05:53:54;;;;;;;13.55;5.63;;;16.70;33.20;;;;;;5085974;28;20046;-69
2021/04/26 05:56:20;;;;;;;9.50;5.75;;;17.00;33.80;;;;;;5086465;28;20036;-67
2021/04/26 05:58:46;;;;;;;11.23;6.35;;;17.50;33.90;;;;;;5086065;28;20400;-68
2021/04/26 06:01:12;;;;;;;9.63;5.60;;;17.30;35.00;;;;;;5076094;28;20027;-69
2021/04/26 06:03:37;;;;;;;8.90;5.45;;;17.60;33.80;;;;;;5073266;28;20041;-68
2021/04/26 06:06:03;;;;;;;11.95;5.45;;;17.90;32.80;;;;;;5075158;28;20024;-68
2021/04/26 06:08:29;;;;;;;7.57;4.30;;;18.30;30.40;;;;;;5075557;28;20039;-69
2021/04/26 06:10:55;;;;;;;8.00;5.15;;;18.50;30.20;;;;;;5073847;28;20021;-69
2021/04/26 06:13:21;;;;;;;13.32;5.38;;;18.90;29.20;;;;;;5076292;28;20178;-69
2021/04/26 06:15:47;;;;;;;10.68;5.40;;;19.20;28.40;;;;;;5082618;28;20044;-67
2021/04/26 06:18:16;;;;;;;10.57;5.82;;;19.00;28.40;;;;;;5085772;28;20408;-68
2021/04/26 06:20:43;;;;;;;15.18;5.88;;;19.30;27.80;;;;;;5084986;28;20036;-68
2021/04/26 06:23:09;;;;;;;8.90;4.93;;;19.30;28.20;;;;;;5085778;28;20038;-68
2021/04/26 06:25:37;;;;;;;22.45;5.72;;;19.20;27.80;;;;;;5084954;28;20115;-69
2021/04/26 06:28:04;;;;;;;6.95;4.07;;;19.50;27.40;;;;;;5084389;28;20036;-69
2021/04/26 06:30:30;;;;;;;10.65;4.47;;;20.00;25.20;;;;;;5086006;28;20427;-68
2021/04/26 06:32:55;;;;;;;6.72;4.40;;;20.20;25.60;;;;;;5085440;28;20452;-68
2021/04/26 06:35:21;;;;;;;7.30;4.20;;;20.70;25.00;;;;;;5085927;28;20035;-68
2021/04/26 06:37:47;;;;;;;8.07;4.30;;;20.60;25.10;;;;;;5086294;28;20489;-69
2021/04/26 06:40:13;;;;;;;11.43;4.32;;;20.80;24.80;;;;;;5086021;28;20036;-68
2021/04/26 06:42:39;;;;;;;10.45;4.38;;;20.70;25.40;;;;;;5085964;28;20024;-68
2021/04/26 06:45:06;;;;;;;6.85;4.13;;;20.80;25.10;;;;;;5085679;28;20542;-66
2021/04/26 06:47:32;;;;;;;7.57;4.03;;;20.90;25.10;;;;;;5085823;28;20073;-68
2021/04/26 06:49:58;;;;;;;9.98;4.68;;;21.30;24.30;;;;;;5085797;28;20445;-67
2021/04/26 06:52:23;;;;;;;15.63;4.05;;;20.90;24.40;;;;;;5085692;28;20552;-68
2021/04/26 06:54:49;;;;;;;12.38;4.35;;;20.60;25.10;;;;;;5085973;28;20024;-68
2021/04/26 06:57:14;;;;;;;9.88;3.30;;;20.70;25.20;;;;;;5086044;28;20024;-68
2021/04/26 06:59:40;;;;;;;11.05;3.95;;;20.70;24.90;;;;;;5085445;28;20024;-68
2021/04/26 07:02:07;;;;;;;10.23;3.58;;;20.70;24.70;;;;;;5084290;28;20027;-67
2021/04/26 07:04:32;;;;;;;8.35;4.38;;;20.80;24.70;;;;;;5085908;28;20036;-68
2021/04/26 07:06:58;;;;;;;6.80;3.20;;;21.30;23.20;;;;;;5085809;28;20032;-68
2021/04/26 07:09:23;;;;;;;8.70;3.55;;;20.60;23.30;;;;;;5085664;28;20032;-68
2021/04/26 07:11:49;;;;;;;8.93;3.30;;;20.00;24.70;;;;;;5085537;28;20027;-68
2021/04/26 07:14:16;;;;;;;9.45;3.38;;;20.10;23.60;;;;;;5085555;28;20059;-68
2021/04/26 07:16:42;;;;;;;30.80;4.75;;;20.00;24.00;;;;;;5086942;28;20028;-67
2021/04/26 07:19:08;;;;;;;9.02;2.95;;;19.90;23.60;;;;;;5089258;28;20039;-68
2021/04/26 07:21:34;;;;;;;4.63;2.63;;;20.00;24.10;;;;;;5089684;28;20041;-68
2021/04/26 07:24:01;;;;;;;14.98;3.70;;;20.00;24.30;;;;;;5087524;28;20028;-67
2021/04/26 07:26:26;;;;;;;5.57;3.17;;;20.30;23.50;;;;;;5088754;28;20055;-67
2021/04/26 07:28:52;;;;;;;5.18;2.50;;;20.20;22.40;;;;;;5089655;28;20051;-67
2021/04/26 07:31:18;;;;;;;5.18;2.75;;;20.30;21.90;;;;;;5087945;28;20028;-67
2021/04/26 07:33:44;;;;;;;8.63;2.97;;;20.00;22.90;;;;;;5088719;28;20499;-67
2021/04/26 07:36:10;;;;;;;4.43;2.65;;;20.30;23.20;;;;;;5089238;28;20504;-66
2021/04/26 07:38:35;;;;;;;5.95;2.70;;;20.60;22.10;;;;;;5088573;28;20496;-67
2021/04/26 07:41:02;;;;;;;7.07;2.63;;;20.90;22.30;;;;;;5089204;28;20107;-67
2021/04/26 07:43:27;;;;;;;8.93;3.03;;;21.50;22.10;;;;;;5089089;28;20081;-68
2021/04/26 07:45:53;;;;;;;4.07;2.58;;;21.70;21.20;;;;;;5088703;28;20806;-68
2021/04/26 07:48:19;;;;;;;5.78;3.00;;;21.70;21.60;;;;;;5089087;28;20032;-67
2021/04/26 07:50:45;;;;;;;5.60;2.83;;;21.60;20.90;;;;;;5088482;28;20511;-68
2021/04/26 07:53:11;;;;;;;8.20;3.58;;;21.80;20.40;;;;;;5088975;28;20084;-68
2021/04/26 07:55:37;;;;;;;7.95;3.47;;;20.90;21.30;;;;;;5088622;28;20303;-67
2021/04/26 07:58:04;;;;;;;7.25;2.85;;;20.80;21.90;;;;;;5088754;28;20020;-67
2021/04/26 08:00:31;;;;;;;8.98;2.55;;;20.90;21.30;;;;;;5088125;28;20145;-67
2021/04/26 08:02:57;;;;;;;5.25;2.85;;;21.00;21.60;;;;;;5088649;28;20146;-67
2021/04/26 08:05:22;;;;;;;5.65;2.67;;;21.40;21.10;;;;;;5088587;28;20185;-67
2021/04/26 08:07:48;;;;;;;6.43;2.85;;;20.90;20.90;;;;;;5086980;28;20028;-67
2021/04/26 08:10:14;;;;;;;6.18;3.47;;;21.10;21.40;;;;;;5088259;28;20142;-67
2021/04/26 08:12:40;;;;;;;6.70;3.03;;;20.80;20.90;;;;;;5087160;28;20048;-70
2021/04/26 08:15:09;;;;;;;10.90;3.10;;;20.60;21.40;;;;;;5087853;28;20046;-68
2021/04/26 08:17:35;;;;;;;9.60;3.17;;;20.70;22.30;;;;;;5087919;28;20035;-68
2021/04/26 08:20:01;;;;;;;11.18;3.65;;;20.80;22.90;;;;;;5088109;28;20024;-67
2021/04/26 08:22:27;;;;;;;7.43;3.45;;;21.30;22.50;;;;;;5088224;28;20032;-67
2021/04/26 08:24:53;;;;;;;6.45;2.92;;;21.70;22.80;;;;;;5087872;28;20031;-66
2021/04/26 08:27:18;;;;;;;10.15;3.38;;;22.20;22.00;;;;;;5087910;28;20499;-67
2021/04/26 08:29:44;;;;;;;6.45;2.88;;;22.30;21.60;;;;;;5087965;28;20032;-67
2021/04/26 08:32:10;;;;;;;5.20;2.78;;;22.20;22.20;;;;;;5087756;28;20024;-67
2021/04/26 08:34:36;;;;;;;7.60;3.15;;;22.50;21.60;;;;;;5088055;28;20110;-67
2021/04/26 08:37:02;;;;;;;6.38;2.95;;;21.50;21.90;;;;;;5087529;28;20040;-67
2021/04/26 08:39:27;;;;;;;5.90;3.13;;;20.50;22.60;;;;;;5087685;28;20023;-67
2021/04/26 08:41:53;;;;;;;6.82;2.47;;;19.90;23.30;;;;;;5087984;28;20518;-68
2021/04/26 08:44:19;;;;;;;5.20;3.05;;;20.50;22.70;;;;;;5086396;28;20116;-68
2021/04/26 08:46:45;;;;;;;6.68;2.63;;;21.00;23.10;;;;;;5087949;28;20028;-67
2021/04/26 08:49:12;;;;;;;6.93;2.95;;;21.60;23.00;;;;;;5086394;28;20039;-67
2021/04/26 08:51:39;;;;;;;5.63;3.00;;;21.80;22.90;;;;;;5087795;28;20020;-67
2021/04/26 08:54:05;;;;;;;5.68;2.33;;;22.10;22.00;;;;;;5087850;28;20039;-67
2021/04/26 08:56:31;;;;;;;6.80;2.92;;;22.20;22.20;;;;;;5087529;28;20531;-68
2021/04/26 08:58:57;;;;;;;4.95;3.08;;;22.30;21.90;;;;;;5087304;28;20028;-67
2021/04/26 09:01:22;;;;;;;4.55;3.10;;;22.10;21.10;;;;;;5087170;28;20027;-67
2021/04/26 09:03:48;;;;;;;7.72;3.42;;;21.70;20.70;;;;;;5087144;28;20489;-67
2021/04/26 09:06:14;;;;;;;4.35;2.38;;;21.30;21.90;;;;;;5087218;28;20028;-67
2021/04/26 09:08:49;;;;;;;5.32;2.85;;;21.10;21.80;;;;;;5086086;28;20116;-67
2021/04/26 09:11:15;;;;;;;6.45;2.72;;;21.30;22.50;;;;;;5086888;28;20020;-67
2021/04/26 09:13:45;;;;;;;8.60;3.58;;;21.70;22.30;;;;;;5086799;28;20083;-67
2021/04/26 09:16:22;;;;;;;17.17;4.15;;;22.40;21.70;;;;;;5086926;28;20055;-69
2021/04/26 09:18:53;;;;;;;4.97;2.33;;;21.90;21.40;;;;;;5087269;28;20467;-67
2021/04/26 09:21:31;;;;;;;11.82;3.63;;;21.10;21.40;;;;;;5087006;28;20036;-66
2021/04/26 09:24:22;;;;;;;5.90;3.55;;;20.90;22.40;;;;;;5085132;28;20043;-67
2021/04/26 09:27:10;;;;;;;6.10;2.70;;;21.20;22.60;;;;;;5086690;28;20834;-67
2021/04/26 09:29:37;;;;;;;4.25;2.60;;;20.60;23.10;;;;;;5086740;28;20063;-67
2021/04/26 09:32:20;;;;;;;7.45;2.65;;;21.20;21.70;;;;;;5086579;28;20024;-67
2021/04/26 09:34:51;;;;;;;5.72;2.42;;;21.60;22.10;;;;;;5085638;28;20089;-68
2021/04/26 09:37:29;;;;;;;4.30;2.35;;;22.40;21.30;;;;;;5086106;28;20090;-67
2021/04/26 09:40:07;;;;;;;4.80;2.17;;;22.10;21.60;;;;;;5085870;28;20036;-67
2021/04/26 09:42:46;;;;;;;6.10;2.20;;;21.90;21.40;;;;;;5085423;28;20453;-67
2021/04/26 09:45:33;;;;;;;4.68;2.40;;;21.90;21.40;;;;;;5083752;28;20035;-67
2021/04/26 09:48:14;;;;;;;3.92;2.03;;;22.40;20.70;;;;;;5085134;28;20024;-68
2021/04/26 09:50:58;;;;;;;4.50;2.15;;;22.50;20.80;;;;;;5086844;28;20428;-67
2021/04/26 09:53:35;;;;;;;7.93;3.60;;;22.40;19.50;;;;;;5086431;28;20553;-67
2021/04/26 09:56:17;;;;;;;7.15;2.90;;;22.00;20.40;;;;;;5086147;28;20031;-67
2021/04/26 09:58:46;;;;;;;7.15;3.30;;;21.90;21.60;;;;;;5085882;28;20032;-70
2021/04/26 10:01:11;;;;;;;10.52;3.50;;;22.00;21.20;;;;;;5086636;28;20020;-69
2021/04/26 10:03:37;;;;;;;4.50;2.35;;;22.30;21.10;;;;;;5086452;28;20046;-67
2021/04/26 10:06:04;;;;;;;7.95;2.92;;;21.40;20.30;;;;;;5086341;28;20106;-67
2021/04/26 10:08:30;;;;;;;8.63;2.83;;;21.40;21.30;;;;;;5085972;28;20052;-67
2021/04/26 10:10:59;;;;;;;3.80;1.95;;;21.40;20.30;;;;;;5086409;28;20028;-66
2021/04/26 10:13:26;;;;;;;8.00;2.20;;;20.90;21.10;;;;;;5085619;28;20052;-66
2021/04/26 10:16:23;;;;;;;5.47;2.28;;;20.60;22.00;;;;;;5086389;28;20026;-67
2021/04/26 10:18:56;;;;;;;12.35;3.10;;;20.30;22.20;;;;;;5080339;28;20043;-66
2021/04/26 10:21:22;;;;;;;7.05;2.50;;;19.80;22.60;;;;;;5086693;28;20073;-66
2021/04/26 10:23:49;;;;;;;5.57;1.90;;;19.50;22.70;;;;;;5086255;28;20040;-69
2021/04/26 10:26:38;;;;;;;3.67;1.63;;;19.00;22.50;;;;;;5086390;28;20020;-66
2021/04/26 10:29:31;;;;;;;5.88;2.17;;;18.80;23.00;;;;;;5086089;28;20032;-66
2021/04/26 10:31:57;;;;;;;10.73;2.00;;;18.50;23.10;;;;;;5085780;28;20097;-66
2021/04/26 10:34:23;;;;;;;3.15;1.55;;;18.30;23.90;;;;;;5086343;28;20782;-66
2021/04/26 10:36:53;;;;;;;5.05;2.10;;;18.30;24.50;;;;;;5085627;28;20361;-67
2021/04/26 10:39:21;;;;;;;7.20;2.10;;;18.30;23.70;;;;;;5085140;28;20043;-67
2021/04/26 10:41:59;;;;;;;5.28;2.53;;;18.00;23.50;;;;;;5085835;28;20662;-67
2021/04/26 10:44:49;;;;;;;8.98;2.20;;;17.80;23.40;;;;;;5085998;28;20075;-66
2021/04/26 10:47:21;;;;;;;5.47;2.00;;;17.70;24.00;;;;;;5084807;28;20024;-67
2021/04/26 10:50:07;;;;;;;6.15;1.90;;;17.60;23.90;;;;;;5086753;28;20078;-67
2021/04/26 10:52:33;;;;;;;12.73;2.88;;;17.40;24.50;;;;;;5075218;28;20097;-67
2021/04/26 10:55:10;;;;;;;4.70;2.20;;;17.20;25.00;;;;;;5088801;28;20100;-67
2021/04/26 10:57:47;;;;;;;4.90;2.13;;;17.20;25.00;;;;;;5089714;28;20055;-67
2021/04/26 11:00:22;;;;;;;9.48;2.45;;;17.00;24.90;;;;;;5089544;28;20637;-67
2021/04/26 11:02:54;;;;;;;6.18;2.60;;;16.90;24.30;;;;;;5088506;28;20474;-66
2021/04/26 11:05:20;;;;;;;9.63;2.15;;;16.30;24.20;;;;;;5090242;28;20036;-66
2021/04/26 11:07:53;;;;;;;;;;;16.20;25.60;;;;;;5089869;28;20024;-67
2021/04/26 11:10:34;;;;;;;12.07;2.25;;;16.30;26.30;;;;;;5089425;28;19908;-67
2021/04/26 11:13:35;;;;;;;7.50;2.70;;;16.40;26.30;;;;;;5089418;28;20468;-67
2021/04/26 11:16:21;;;;;;;5.22;2.20;;;16.60;26.70;;;;;;5089353;28;20034;-67
2021/04/26 11:19:03;;;;;;;3.25;1.40;;;16.70;25.30;;;;;;5089335;28;20489;-66
2021/04/26 11:21:47;;;;;;;5.03;1.80;;;16.70;25.60;;;;;;5089688;28;20032;-67
2021/04/26 11:24:36;;;;;;;3.38;1.30;;;16.60;25.10;;;;;;5088089;28;20047;-67
2021/04/26 11:27:07;;;;;;;4.88;1.60;;;16.60;25.90;;;;;;5089096;28;20192;-67
2021/04/26 11:29:46;;;;;;;5.07;1.83;;;16.60;26.00;;;;;;5087902;28;20074;-66
2021/04/26 11:32:13;;;;;;;3.83;1.40;;;16.70;25.10;;;;;;5087816;28;20268;-67
2021/04/26 11:34:48;;;;;;;8.00;2.05;;;16.70;24.40;;;;;;5088971;28;20056;-67
2021/04/26 11:37:22;;;;;;;4.72;1.50;;;16.60;25.20;;;;;;5089259;28;20039;-66
2021/04/26 11:39:51;;;;;;;2.55;1.30;;;16.60;25.30;;;;;;5089179;28;20065;-66
2021/04/26 11:42:25;;;;;;;5.25;2.30;;;16.70;24.90;;;;;;5086877;28;20024;-67
2021/04/26 11:44:52;;;;;;;7.15;1.30;;;16.80;24.30;;;;;;5089196;28;20492;-67
2021/04/26 11:47:19;;;;;;;5.97;1.55;;;16.80;24.40;;;;;;5087647;28;20043;-67
2021/04/26 11:49:50;;;;;;;9.02;2.53;;;16.60;24.10;;;;;;5088968;28;20035;-67
2021/04/26 11:52:21;;;;;;;3.58;1.80;;;16.50;24.30;;;;;;5088523;28;20028;-67
2021/04/26 11:55:09;;;;;;;5.03;1.50;;;16.30;24.50;;;;;;5087157;28;20024;-67
2021/04/26 11:57:41;;;;;;;6.75;1.83;;;16.30;24.30;;;;;;5088803;28;20028;-66
2021/04/26 12:00:10;;;;;;;18.50;1.95;;;16.10;24.70;;;;;;5088467;28;20397;-68
2021/04/26 12:02:42;;;;;;;11.82;1.75;;;16.10;24.20;;;;;;5088202;28;20016;-67
2021/04/26 12:05:11;;;;;;;10.13;1.88;;;16.00;24.70;;;;;;5088781;28;20115;-67
2021/04/26 12:07:37;;;;;;;2.75;1.35;;;16.00;24.50;;;;;;5088460;28;20073;-67
2021/04/26 12:10:04;;;;;;;;;;;15.90;24.70;;;;;;5089160;28;20032;-67
2021/04/26 12:12:31;;;;;;;6.35;1.77;;;15.80;23.60;;;;;;5087656;28;19959;-67
2021/04/26 12:14:59;;;;;;;4.40;1.83;;;15.50;24.00;;;;;;5088101;28;20020;-66
2021/04/26 12:17:35;;;;;;;3.35;1.50;;;15.40;24.60;;;;;;5088651;28;20036;-66
2021/04/26 12:20:08;;;;;;;10.23;1.98;;;15.50;25.80;;;;;;5088039;28;20023;-67
2021/04/26 12:22:34;;;;;;;5.65;1.92;;;15.70;25.40;;;;;;5088277;28;20508;-67
2021/04/26 12:25:04;;;;;;;3.75;1.33;;;15.70;25.40;;;;;;5088508;28;20044;-67
2021/04/26 12:27:30;;;;;;;4.30;1.17;;;15.70;25.60;;;;;;5087879;28;20024;-67
2021/04/26 12:30:20;;;;;;;2.67;1.10;;;15.70;25.00;;;;;;5086485;28;20039;-66
2021/04/26 12:32:47;;;;;;;3.30;1.48;;;15.80;24.70;;;;;;5087844;28;20043;-67
2021/04/26 12:35:17;;;;;;;3.95;1.40;;;15.50;24.30;;;;;;5088035;28;20404;-67
2021/04/26 12:37:46;;;;;;;4.53;1.10;;;15.30;24.90;;;;;;5087984;28;20085;-68
2021/04/26 12:40:25;;;;;;;4.63;1.35;;;15.50;25.90;;;;;;5086801;28;20024;-67
2021/04/26 12:43:01;;;;;;;2.75;1.52;;;15.60;24.00;;;;;;5087781;28;20032;-67
2021/04/26 12:45:34;;;;;;;;;;;15.20;24.90;;;;;;5088208;28;20028;-67
2021/04/26 12:48:02;;;;;;;2.50;1.13;;;15.30;25.60;;;;;;5087926;28;20368;-67
2021/04/26 12:50:38;;;;;;;3.25;1.20;;;15.40;25.60;;;;;;5087942;28;20141;-67
2021/04/26 12:53:13;;;;;;;2.03;1.00;;;15.60;25.30;;;;;;5087788;28;20066;-67
2021/04/26 12:55:43;;;;;;;5.90;1.65;;;15.70;25.40;;;;;;5087590;28;20032;-67
2021/04/26 12:58:11;;;;;;;2.53;1.23;;;15.80;25.50;;;;;;5085711;28;20459;-67
2021/04/26 13:00:52;;;;;;;2.45;1.23;;;15.90;25.70;;;;;;5087368;28;20492;-66
2021/04/26 13:03:28;;;;;;;4.68;1.40;;;15.90;25.40;;;;;;5087472;28;20036;-67
2021/04/26 13:06:03;;;;;;;3.70;1.52;;;15.90;24.40;;;;;;5086971;28;20028;-66
2021/04/26 13:08:29;;;;;;;6.35;2.38;;;15.90;25.60;;;;;;5086223;28;20036;-66